createdAt,value
2023-03-01T00:01:42.130Z,33.10
2023-03-01T00:04:09.905Z,26.40
2023-03-01T00:06:38.364Z,29.20
2023-03-01T00:09:06.710Z,27.90
2023-03-01T00:11:35.623Z,25.10
2023-03-01T00:14:05.966Z,35.60
2023-03-01T00:16:41.444Z,26.70
2023-03-01T00:19:14.052Z,31.50
2023-03-01T00:21:42.149Z,34.90
2023-03-01T00:24:10.640Z,41.60
2023-03-01T00:26:38.982Z,32.10
2023-03-01T00:29:06.884Z,36.80
2023-03-01T00:31:35.846Z,40.50
2023-03-01T00:34:05.665Z,35.90
2023-03-01T00:36:36.945Z,35.60
2023-03-01T00:39:08.561Z,31.60
2023-03-01T00:41:36.274Z,34.50
2023-03-01T00:44:04.628Z,37.10
2023-03-01T00:46:33.480Z,30.20
2023-03-01T00:49:03.119Z,34.50
2023-03-01T00:51:31.449Z,31.30
2023-03-01T00:54:02.208Z,34.80
2023-03-01T00:56:31.253Z,33.00
2023-03-01T00:58:59.433Z,34.40
2023-03-01T01:01:33.025Z,35.60
2023-03-01T01:04:04.513Z,32.60
2023-03-01T01:06:36.186Z,33.20
2023-03-01T01:09:07.568Z,35.50
2023-03-01T01:11:37.446Z,32.00
2023-03-01T01:16:33.785Z,35.10
2023-03-01T01:19:02.457Z,31.80
2023-03-01T01:21:30.446Z,33.10
2023-03-01T01:23:58.563Z,31.60
2023-03-01T01:26:31.978Z,32.20
2023-03-01T01:29:01.103Z,30.80
2023-03-01T01:31:29.846Z,29.40
2023-03-01T01:33:59.625Z,28.80
2023-03-01T01:36:28.556Z,28.00
2023-03-01T01:38:57.229Z,30.70
2023-03-01T01:41:26.449Z,33.10
2023-03-01T01:44:19.167Z,27.80
2023-03-01T01:47:14.033Z,33.70
2023-03-01T01:49:48.401Z,28.20
2023-03-01T01:52:23.566Z,30.90
2023-03-01T01:55:03.285Z,31.70
2023-03-01T01:57:41.715Z,35.60
2023-03-01T02:00:14.250Z,27.20
2023-03-01T02:02:44.180Z,28.00
2023-03-01T02:05:30.218Z,32.00
2023-03-01T02:07:59.919Z,28.30
2023-03-01T02:10:29.124Z,34.30
2023-03-01T02:12:57.092Z,30.10
2023-03-01T02:15:25.257Z,27.80
2023-03-01T02:17:54.360Z,24.80
2023-03-01T02:20:53.223Z,24.70
2023-03-01T02:23:21.155Z,35.10
2023-03-01T02:26:25.930Z,33.60
2023-03-01T02:28:53.929Z,23.70
2023-03-01T02:31:41.675Z,27.40
2023-03-01T02:34:17.107Z,22.90
2023-03-01T02:36:57.167Z,17.70
2023-03-01T02:39:30.753Z,24.90
2023-03-01T02:41:59.940Z,30.50
2023-03-01T02:44:27.745Z,27.60
2023-03-01T02:46:59.105Z,32.30
2023-03-01T02:49:33.480Z,39.30
2023-03-01T02:52:47.213Z,32.50
2023-03-01T02:55:19.124Z,34.90
2023-03-01T02:57:51.681Z,27.50
2023-03-01T03:00:27.737Z,30.60
2023-03-01T03:02:57.927Z,37.20
2023-03-01T03:05:29.763Z,30.20
2023-03-01T03:08:01.176Z,32.80
2023-03-01T03:10:33.270Z,31.40
2023-03-01T03:13:07.029Z,35.40
2023-03-01T03:15:39.439Z,32.70
2023-03-01T03:18:11.116Z,35.30
2023-03-01T03:20:41.619Z,33.70
2023-03-01T03:23:10.138Z,28.60
2023-03-01T03:25:38.812Z,30.70
2023-03-01T03:28:11.087Z,28.90
2023-03-01T03:30:41.230Z,29.50
2023-03-01T03:33:13.117Z,28.60
2023-03-01T03:35:47.903Z,29.60
2023-03-01T03:38:18.255Z,24.50
2023-03-01T03:40:49.640Z,32.00
2023-03-01T03:43:23.244Z,30.30
2023-03-01T03:45:52.416Z,33.50
2023-03-01T03:48:20.592Z,31.90
2023-03-01T03:50:53.957Z,31.70
2023-03-01T03:53:24.386Z,29.60
2023-03-01T03:55:52.910Z,33.70
2023-03-01T03:58:24.274Z,32.30
2023-03-01T04:00:54.903Z,27.60
2023-03-01T04:03:24.657Z,23.40
2023-03-01T04:05:52.580Z,23.70
2023-03-01T04:08:22.280Z,26.90
2023-03-01T04:10:53.549Z,26.00
2023-03-01T04:13:23.520Z,30.30
2023-03-01T04:18:21.600Z,27.80
2023-03-01T04:20:49.618Z,29.40
2023-03-01T04:23:22.747Z,28.50
2023-03-01T04:25:56.681Z,30.70
2023-03-01T04:28:37.315Z,28.30
2023-03-01T04:31:15.085Z,28.40
2023-03-01T04:33:45.741Z,25.30
2023-03-01T04:36:15.555Z,28.10
2023-03-01T04:38:43.443Z,24.60
2023-03-01T04:41:12.873Z,28.00
2023-03-01T04:43:40.704Z,31.30
2023-03-01T04:46:13.335Z,27.80
2023-03-01T04:48:44.890Z,27.80
2023-03-01T04:51:16.571Z,26.10
2023-03-01T04:53:45.403Z,26.30
2023-03-01T04:56:14.832Z,24.10
2023-03-01T04:58:42.825Z,24.60
2023-03-01T05:01:17.572Z,19.90
2023-03-01T05:03:47.502Z,27.90
2023-03-01T05:06:16.356Z,22.20
2023-03-01T05:08:44.843Z,21.30
2023-03-01T05:11:13.151Z,26.00
2023-03-01T05:13:41.527Z,21.70
2023-03-01T05:16:13.363Z,22.10
2023-03-01T05:18:41.901Z,24.30
2023-03-01T05:21:13.393Z,24.20
2023-03-01T05:23:41.802Z,21.20
2023-03-01T05:26:25.819Z,29.70
2023-03-01T05:28:59.682Z,23.00
2023-03-01T05:31:28.584Z,22.00
2023-03-01T05:33:56.229Z,21.40
2023-03-01T05:36:23.844Z,25.00
2023-03-01T05:38:52.023Z,20.20
2023-03-01T05:41:19.763Z,21.20
2023-03-01T05:43:47.371Z,15.50
2023-03-01T05:46:16.210Z,12.90
2023-03-01T05:48:44.640Z,13.10
2023-03-01T05:51:13.037Z,17.30
2023-03-01T05:53:40.705Z,13.80
2023-03-01T05:56:08.643Z,13.50
2023-03-01T05:58:36.278Z,17.40
2023-03-01T06:01:04.027Z,16.60
2023-03-01T06:03:31.701Z,11.20
2023-03-01T06:05:59.662Z,14.90
2023-03-01T06:08:28.351Z,21.10
2023-03-01T06:10:56.798Z,26.40
2023-03-01T06:13:25.368Z,23.50
2023-03-01T06:15:53.185Z,15.40
2023-03-01T06:18:20.991Z,19.50
2023-03-01T06:20:57.014Z,18.80
2023-03-01T06:23:25.078Z,23.00
2023-03-01T06:25:53.253Z,20.90
2023-03-01T06:28:20.909Z,19.90
2023-03-01T06:30:48.645Z,18.40
2023-03-01T06:33:16.349Z,17.60
2023-03-01T06:35:44.178Z,21.20
2023-03-01T06:38:11.926Z,25.00
2023-03-01T06:40:39.585Z,20.60
2023-03-01T06:43:08.566Z,18.40
2023-03-01T06:45:36.385Z,16.10
2023-03-01T06:48:08.553Z,27.10
2023-03-01T06:50:37.009Z,25.80
2023-03-01T06:53:05.590Z,17.50
2023-03-01T06:55:33.448Z,31.70
2023-03-01T06:58:03.229Z,29.20
2023-03-01T07:00:31.413Z,21.50
2023-03-01T07:03:01.408Z,31.00
2023-03-01T07:05:30.551Z,17.60
2023-03-01T07:07:58.477Z,17.00
2023-03-01T07:10:26.230Z,27.30
2023-03-01T07:12:58.522Z,15.90
2023-03-01T07:15:28.017Z,30.80
2023-03-01T07:17:57.071Z,25.40
2023-03-01T07:20:26.235Z,23.60
2023-03-01T07:22:56.123Z,25.40
2023-03-01T07:25:23.761Z,27.70
2023-03-01T07:27:53.495Z,24.30
2023-03-01T07:30:22.387Z,24.80
2023-03-01T07:32:50.473Z,26.00
2023-03-01T07:35:18.821Z,21.70
2023-03-01T07:37:46.716Z,24.70
2023-03-01T07:40:14.631Z,18.90
2023-03-01T07:42:42.445Z,17.90
2023-03-01T07:45:11.114Z,22.70
2023-03-01T07:47:39.788Z,24.20
2023-03-01T07:50:08.094Z,18.80
2023-03-01T07:52:35.744Z,20.70
2023-03-01T07:55:03.696Z,23.80
2023-03-01T07:57:31.408Z,23.70
2023-03-01T07:59:59.034Z,23.80
2023-03-01T08:02:26.659Z,24.90
2023-03-01T08:04:54.261Z,25.60
2023-03-01T08:07:21.963Z,22.70
2023-03-01T08:09:49.896Z,21.70
2023-03-01T08:12:17.865Z,21.70
2023-03-01T08:14:45.644Z,23.60
2023-03-01T08:17:15.329Z,15.30
2023-03-01T08:19:43.842Z,22.60
2023-03-01T08:22:11.774Z,24.40
2023-03-01T08:24:39.451Z,19.70
2023-03-01T08:27:07.163Z,17.50
2023-03-01T08:29:35.168Z,14.60
2023-03-01T08:32:02.991Z,22.60
2023-03-01T08:34:32.152Z,18.10
2023-03-01T08:36:59.887Z,16.30
2023-03-01T08:39:28.220Z,13.00
2023-03-01T08:41:56.018Z,15.70
2023-03-01T08:44:23.711Z,16.20
2023-03-01T08:46:52.426Z,9.50
2023-03-01T08:49:21.509Z,14.00
2023-03-01T08:51:49.288Z,13.00
2023-03-01T08:54:20.914Z,11.80
2023-03-01T08:56:49.517Z,10.40
2023-03-01T08:59:18.449Z,10.50
2023-03-01T09:01:46.399Z,9.80
2023-03-01T09:04:16.095Z,10.00
2023-03-01T09:06:44.178Z,12.50
2023-03-01T09:09:16.937Z,8.00
2023-03-01T09:11:47.159Z,11.50
2023-03-01T09:14:15.106Z,9.60
2023-03-01T09:16:43.421Z,10.40
2023-03-01T09:19:12.042Z,8.40
2023-03-01T09:21:41.276Z,10.90
2023-03-01T09:31:39.635Z,11.50
2023-03-01T09:34:08.199Z,6.90
2023-03-01T09:36:36.492Z,8.20
2023-03-01T09:39:06.862Z,11.10
2023-03-01T09:41:45.988Z,10.00
2023-03-01T09:44:19.308Z,9.60
2023-03-01T09:46:47.457Z,13.20
2023-03-01T09:49:22.277Z,8.60
2023-03-01T09:51:57.244Z,11.40
2023-03-01T09:54:25.133Z,9.00
2023-03-01T09:57:20.352Z,5.80
2023-03-01T10:00:12.944Z,12.10
2023-03-01T10:02:53.608Z,10.60
2023-03-01T10:05:53.574Z,8.50
2023-03-01T10:09:01.785Z,10.10
2023-03-01T10:11:33.342Z,8.90
2023-03-01T10:14:15.003Z,8.80
2023-03-01T10:17:10.594Z,12.40
2023-03-01T10:19:42.499Z,40.50
2023-03-01T10:22:29.397Z,9.20
2023-03-01T10:25:00.859Z,11.10
2023-03-01T10:27:47.660Z,14.60
2023-03-01T10:30:33.426Z,11.90
2023-03-01T10:33:03.057Z,36.00
2023-03-01T10:35:34.958Z,12.80
2023-03-01T10:38:11.846Z,16.30
2023-03-01T10:41:08.010Z,13.90
2023-03-01T10:43:44.828Z,11.90
2023-03-01T10:46:26.611Z,6.80
2023-03-01T10:49:23.955Z,12.90
2023-03-01T10:51:53.573Z,15.30
2023-03-01T10:54:31.159Z,11.40
2023-03-01T10:57:01.588Z,10.00
2023-03-01T10:59:38.081Z,7.30
2023-03-01T11:02:26.886Z,14.10
2023-03-01T11:04:57.506Z,10.00
2023-03-01T11:07:25.254Z,11.00
2023-03-01T11:09:53.457Z,13.00
2023-03-01T11:12:22.187Z,10.40
2023-03-01T11:14:52.468Z,8.40
2023-03-01T11:17:31.631Z,12.80
2023-03-01T11:20:15.806Z,7.30
2023-03-01T11:22:53.340Z,8.70
2023-03-01T11:25:26.028Z,10.00
2023-03-01T11:27:55.860Z,10.10
2023-03-01T11:30:27.638Z,8.80
2023-03-01T11:33:06.583Z,6.70
2023-03-01T11:35:39.042Z,7.20
2023-03-01T11:38:13.072Z,9.50
2023-03-01T11:40:45.553Z,9.60
2023-03-01T11:43:25.099Z,10.30
2023-03-01T11:46:11.845Z,9.80
2023-03-01T11:48:49.918Z,9.50
2023-03-01T11:51:26.631Z,9.80
2023-03-01T11:54:00.253Z,9.80
2023-03-01T11:56:42.166Z,11.80
2023-03-01T11:59:21.858Z,8.90
2023-03-01T12:02:08.545Z,5.90
2023-03-01T12:05:03.880Z,8.90
2023-03-01T12:08:14.707Z,7.30
2023-03-01T12:10:58.096Z,8.20
2023-03-01T12:13:50.448Z,8.50
2023-03-01T12:16:47.171Z,7.90
2023-03-01T12:19:52.627Z,10.70
2023-03-01T12:22:31.232Z,10.60
2023-03-01T12:25:17.484Z,10.20
2023-03-01T12:28:19.184Z,8.70
2023-03-01T12:31:07.314Z,12.50
2023-03-01T12:33:43.894Z,9.20
2023-03-01T12:36:39.838Z,8.30
2023-03-01T12:39:25.090Z,10.50
2023-03-01T12:42:08.353Z,11.50
2023-03-01T12:44:56.456Z,11.60
2023-03-01T12:47:36.505Z,9.90
2023-03-01T12:50:19.740Z,8.70
2023-03-01T12:52:52.917Z,9.60
2023-03-01T12:55:29.472Z,10.20
2023-03-01T12:58:01.509Z,12.70
2023-03-01T13:00:37.362Z,10.00
2023-03-01T13:03:29.258Z,11.30
2023-03-01T13:06:09.138Z,10.00
2023-03-01T13:09:02.901Z,11.40
2023-03-01T13:11:30.893Z,10.60
2023-03-01T13:14:26.389Z,12.50
2023-03-01T13:16:55.081Z,12.50
2023-03-01T13:19:25.994Z,14.00
2023-03-01T13:23:22.471Z,13.90
2023-03-01T13:25:59.687Z,19.20
2023-03-01T13:28:45.948Z,13.80
2023-03-01T13:31:16.295Z,12.90
2023-03-01T13:33:52.797Z,9.30
2023-03-01T13:36:33.581Z,16.70
2023-03-01T13:39:04.594Z,14.00
2023-03-01T13:41:44.226Z,11.20
2023-03-01T13:44:24.760Z,13.30
2023-03-01T13:47:18.432Z,14.90
2023-03-01T13:50:03.657Z,11.40
2023-03-01T13:52:38.012Z,10.50
2023-03-01T13:55:14.783Z,13.00
2023-03-01T13:57:46.808Z,17.30
2023-03-01T14:00:33.840Z,14.60
2023-03-01T14:03:07.051Z,17.80
2023-03-01T14:05:37.063Z,13.20
2023-03-01T14:21:02.185Z,11.10
2023-03-01T14:23:30.573Z,10.30
2023-03-01T14:25:58.988Z,9.90
2023-03-01T14:28:27.319Z,11.80
2023-03-01T14:30:57.541Z,11.80
2023-03-01T14:33:26.688Z,11.10
2023-03-01T14:36:01.764Z,12.40
2023-03-01T14:38:41.380Z,9.60
2023-03-01T14:41:18.890Z,14.60
2023-03-01T14:44:02.190Z,13.90
2023-03-01T14:46:40.884Z,14.40
2023-03-01T14:49:20.018Z,13.50
2023-03-01T14:51:54.598Z,11.80
2023-03-01T14:54:27.796Z,12.80
2023-03-01T14:57:00.783Z,11.20
2023-03-01T14:59:29.520Z,12.90
2023-03-01T15:01:59.205Z,14.70
2023-03-01T15:04:28.592Z,11.40
2023-03-01T15:07:05.797Z,13.90
2023-03-01T15:09:36.211Z,18.80
2023-03-01T15:12:30.080Z,13.00
2023-03-01T15:15:04.175Z,13.00
2023-03-01T15:17:39.154Z,11.40
2023-03-01T15:20:17.710Z,12.50
2023-03-01T15:22:49.731Z,11.40
2023-03-01T15:25:23.853Z,12.70
2023-03-01T15:27:54.489Z,12.00
2023-03-01T15:30:27.456Z,11.40
2023-03-01T15:33:21.828Z,11.90
2023-03-01T15:35:54.536Z,12.30
2023-03-01T15:38:55.596Z,12.60
2023-03-01T15:41:48.274Z,16.50
2023-03-01T15:44:41.638Z,13.60
2023-03-01T15:47:27.517Z,17.90
2023-03-01T15:50:02.338Z,14.50
2023-03-01T15:52:41.579Z,16.30
2023-03-01T15:55:18.698Z,16.00
2023-03-01T15:57:47.302Z,12.80
2023-03-01T16:00:16.225Z,14.70
2023-03-01T16:02:45.315Z,14.20
2023-03-01T16:05:21.830Z,11.60
2023-03-01T16:07:49.884Z,12.70
2023-03-01T16:10:18.574Z,14.30
2023-03-01T16:12:48.379Z,11.70
2023-03-01T16:15:23.931Z,23.20
2023-03-01T16:17:53.026Z,14.10
2023-03-01T16:20:28.659Z,12.70
2023-03-01T16:23:02.473Z,19.50
2023-03-01T16:25:31.088Z,17.80
2023-03-01T16:28:01.678Z,18.00
2023-03-01T16:30:29.527Z,18.60
2023-03-01T16:32:57.204Z,17.20
2023-03-01T16:35:25.007Z,17.40
2023-03-01T16:37:54.904Z,17.00
2023-03-01T16:40:25.651Z,19.10
2023-03-01T16:42:56.238Z,19.50
2023-03-01T16:45:28.972Z,24.10
2023-03-01T16:47:56.842Z,20.40
2023-03-01T16:50:24.515Z,19.60
2023-03-01T16:52:52.309Z,20.90
2023-03-01T16:55:19.993Z,27.90
2023-03-01T16:57:47.726Z,22.30
2023-03-01T17:00:15.758Z,22.60
2023-03-01T17:02:43.511Z,30.30
2023-03-01T17:05:12.798Z,33.80
2023-03-01T17:07:40.889Z,31.40
2023-03-01T17:10:10.942Z,27.80
2023-03-01T17:12:39.145Z,27.70
2023-03-01T17:15:07.719Z,27.80
2023-03-01T17:17:35.680Z,35.20
2023-03-01T17:20:04.944Z,35.90
2023-03-01T17:22:32.849Z,36.40
2023-03-01T17:25:01.202Z,41.60
2023-03-01T17:27:29.554Z,35.00
2023-03-01T17:29:57.418Z,39.60
2023-03-01T17:32:25.318Z,32.40
2023-03-01T17:34:53.269Z,32.70
2023-03-01T17:37:21.229Z,44.20
2023-03-01T17:39:48.925Z,36.50
2023-03-01T17:42:17.015Z,33.30
2023-03-01T17:44:44.890Z,34.40
2023-03-01T17:47:12.774Z,34.00
2023-03-01T17:49:42.988Z,33.90
2023-03-01T17:52:10.686Z,30.20
2023-03-01T17:54:38.386Z,29.80
2023-03-01T17:57:06.645Z,24.90
2023-03-01T17:59:37.143Z,32.60
2023-03-01T18:02:04.985Z,36.70
2023-03-01T18:04:32.926Z,31.30
2023-03-01T18:07:01.001Z,29.60
2023-03-01T18:09:28.914Z,29.20
2023-03-01T18:11:57.175Z,32.70
2023-03-01T18:14:25.904Z,30.30
2023-03-01T18:16:53.857Z,32.30
2023-03-01T18:19:21.886Z,32.20
2023-03-01T18:21:49.751Z,31.80
2023-03-01T18:24:17.390Z,40.10
2023-03-01T18:26:45.279Z,37.60
2023-03-01T18:29:12.928Z,34.70
2023-03-01T18:31:40.572Z,36.60
2023-03-01T18:34:11.792Z,37.70
2023-03-01T18:36:41.448Z,33.80
2023-03-01T18:41:37.660Z,28.50
2023-03-01T18:44:06.540Z,37.10
2023-03-01T18:46:37.777Z,36.70
2023-03-01T18:49:07.474Z,39.50
2023-03-01T18:51:35.766Z,33.40
2023-03-01T18:54:04.002Z,36.50
2023-03-01T18:56:33.360Z,35.40
2023-03-01T18:59:02.433Z,33.40
2023-03-01T19:01:33.013Z,34.50
2023-03-01T19:04:02.884Z,33.90
2023-03-01T19:06:34.237Z,34.10
2023-03-01T19:09:02.893Z,29.20
2023-03-01T19:11:33.487Z,28.60
2023-03-01T19:14:02.341Z,27.00
2023-03-01T19:16:32.621Z,26.80
2023-03-01T19:19:03.698Z,24.00
2023-03-01T19:21:32.814Z,27.00
2023-03-01T19:24:02.452Z,31.70
2023-03-01T19:26:31.789Z,24.20
2023-03-01T19:29:00.378Z,25.50
2023-03-01T19:31:30.704Z,25.70
2023-03-01T19:34:10.519Z,25.60
2023-03-01T19:36:43.275Z,27.70
2023-03-01T19:39:13.633Z,24.30
2023-03-01T19:41:43.106Z,26.30
2023-03-01T19:44:11.716Z,32.40
2023-03-01T19:46:39.912Z,27.90
2023-03-01T19:49:08.355Z,24.80
2023-03-01T19:51:38.820Z,26.00
2023-03-01T19:54:08.016Z,25.90
2023-03-01T19:56:35.985Z,26.70
2023-03-01T19:59:04.962Z,28.50
2023-03-01T20:01:34.884Z,29.50
2023-03-01T20:04:03.866Z,28.50
2023-03-01T20:06:32.126Z,29.20
2023-03-01T20:09:08.955Z,30.70
2023-03-01T20:11:43.708Z,27.10
2023-03-01T20:14:12.344Z,28.90
2023-03-01T20:16:40.390Z,29.40
2023-03-01T20:19:08.558Z,26.10
2023-03-01T20:21:36.329Z,28.40
2023-03-01T20:24:04.350Z,29.10
2023-03-01T20:26:33.254Z,37.70
2023-03-01T20:29:01.100Z,31.90
2023-03-01T20:31:29.884Z,34.60
2023-03-01T20:33:59.753Z,35.90
2023-03-01T20:36:28.177Z,34.90
2023-03-01T20:38:56.491Z,38.20
2023-03-01T20:41:26.709Z,37.20
2023-03-01T20:43:56.461Z,35.50
2023-03-01T20:46:26.962Z,39.50
2023-03-01T20:48:54.953Z,44.10
2023-03-01T20:51:22.654Z,43.60
2023-03-01T20:53:50.719Z,47.40
2023-03-01T20:56:20.578Z,49.50
2023-03-01T20:59:09.323Z,44.60
2023-03-01T21:01:39.874Z,49.90
2023-03-01T21:04:07.695Z,44.50
2023-03-01T21:06:36.311Z,50.40
2023-03-01T21:09:04.789Z,44.40
2023-03-01T21:11:32.550Z,41.10
2023-03-01T21:14:00.778Z,41.80
2023-03-01T21:16:28.671Z,42.60
2023-03-01T21:19:01.660Z,38.00
2023-03-01T21:21:29.515Z,35.90
2023-03-01T21:23:57.309Z,45.20
2023-03-01T21:26:27.132Z,40.10
2023-03-01T21:31:31.924Z,44.00
2023-03-01T21:34:04.053Z,39.90
2023-03-01T21:36:33.297Z,37.50
2023-03-01T21:39:02.384Z,39.50
2023-03-01T21:41:32.900Z,32.20
2023-03-01T21:44:03.109Z,33.00
2023-03-01T21:46:36.684Z,31.90
2023-03-01T21:49:05.830Z,35.70
2023-03-01T21:51:34.167Z,32.10
2023-03-01T21:54:02.331Z,37.30
2023-03-01T21:56:34.440Z,32.10
2023-03-01T21:59:02.401Z,33.30
2023-03-01T22:01:30.320Z,33.80
2023-03-01T22:04:00.244Z,27.60
2023-03-01T22:06:35.163Z,31.10
2023-03-01T22:09:08.989Z,37.60
2023-03-01T22:11:39.550Z,32.10
2023-03-01T22:14:08.269Z,36.80
2023-03-01T22:16:36.821Z,32.40
2023-03-01T22:19:06.417Z,31.90
2023-03-01T22:21:35.098Z,36.40
2023-03-01T22:24:03.996Z,32.10
2023-03-01T22:26:38.332Z,30.10
2023-03-01T22:29:12.679Z,34.10
2023-03-01T22:31:41.433Z,28.60
2023-03-01T22:34:10.276Z,30.30
2023-03-01T22:36:39.351Z,25.90
2023-03-01T22:39:07.558Z,24.40
2023-03-01T22:41:43.142Z,28.10
2023-03-01T22:44:20.644Z,30.20
2023-03-01T22:46:48.838Z,28.20
2023-03-01T22:49:17.303Z,30.30
2023-03-01T22:51:47.510Z,30.80
2023-03-01T22:54:20.405Z,29.50
2023-03-01T22:56:48.592Z,34.70
2023-03-01T22:59:23.110Z,37.80
2023-03-01T23:01:52.757Z,32.40
2023-03-01T23:04:22.013Z,30.90
2023-03-01T23:06:51.557Z,31.20
2023-03-01T23:09:23.463Z,33.30
2023-03-01T23:11:52.189Z,33.90
2023-03-01T23:14:21.420Z,28.30
2023-03-01T23:16:50.476Z,31.30
2023-03-01T23:19:18.933Z,32.30
2023-03-01T23:21:49.992Z,28.40
2023-03-01T23:24:19.326Z,32.80
2023-03-01T23:26:51.848Z,31.60
2023-03-01T23:29:20.286Z,28.50
2023-03-01T23:31:48.849Z,27.40
2023-03-01T23:34:16.547Z,28.90
2023-03-01T23:36:45.277Z,27.20
2023-03-01T23:39:14.267Z,29.60
2023-03-01T23:41:42.184Z,27.50
2023-03-01T23:44:16.039Z,32.40
2023-03-01T23:46:44.974Z,29.10
2023-03-01T23:49:14.805Z,29.50
2023-03-01T23:51:50.137Z,25.90
2023-03-01T23:54:20.159Z,28.20
2023-03-01T23:56:47.959Z,29.50
2023-03-01T23:59:18.489Z,31.80
